Time;durP1;ratioP1;P1;durP2;ratioP2;P2;SDS_P1;SDS_P2;PMS_P1;PMS_P2;Temp;Humidity;BMP_temperature;BMP_pressure;BME280_temperature;BME280_humidity;BME280_pressure;Samples;Min_cycle;Max_cycle;Signal;HPM_P1;HPM_P2
2023/06/22 00:00:52;;;;;;;21.95;19.88;;;18.70;99.90;;;;;;5073525;28;20032;-83
2023/06/22 00:03:20;;;;;;;25.83;23.27;;;18.70;99.90;;;;;;5073353;28;20543;-84
2023/06/22 00:05:47;;;;;;;22.55;20.25;;;18.70;99.90;;;;;;5073460;28;20036;-83
2023/06/22 00:08:13;;;;;;;19.20;17.33;;;18.70;99.90;;;;;;5073397;28;20405;-84
2023/06/22 00:10:39;;;;;;;22.80;20.80;;;18.70;99.90;;;;;;5056498;28;20490;-83
2023/06/22 00:13:06;;;;;;;27.77;25.05;;;18.80;99.90;;;;;;5073072;28;20614;-83
2023/06/22 00:15:32;;;;;;;30.75;27.85;;;18.70;99.90;;;;;;5073513;28;20432;-83
2023/06/22 00:17:58;;;;;;;39.65;35.92;;;18.70;99.90;;;;;;5073081;28;20178;-84
2023/06/22 00:20:27;;;;;;;36.33;32.70;;;18.80;99.90;;;;;;5056103;28;20040;-83
2023/06/22 00:22:57;;;;;;;19.85;17.77;;;18.80;99.90;;;;;;5072837;28;20498;-83
2023/06/22 00:25:23;;;;;;;19.23;17.30;;;18.80;99.90;;;;;;5073305;28;20063;-83
2023/06/22 00:27:49;;;;;;;14.65;13.25;;;18.70;99.90;;;;;;5056360;28;20490;-83
2023/06/22 00:30:19;;;;;;;12.85;11.38;;;18.70;99.90;;;;;;5072760;28;20040;-83
2023/06/22 00:32:45;;;;;;;11.45;10.02;;;18.70;99.90;;;;;;5072978;28;20147;-83
2023/06/22 00:35:12;;;;;;;10.95;9.65;;;18.70;99.90;;;;;;5072870;28;20066;-83
2023/06/22 00:37:41;;;;;;;10.70;9.57;;;18.60;99.90;;;;;;5056570;28;20102;-83
2023/06/22 00:40:08;;;;;;;11.13;9.48;;;18.60;99.90;;;;;;5072562;28;20040;-83
2023/06/22 00:42:34;;;;;;;13.90;12.50;;;18.60;99.90;;;;;;5072723;28;20044;-83
2023/06/22 00:44:59;;;;;;;17.88;16.08;;;18.60;99.90;;;;;;5072954;28;20055;-83
2023/06/22 00:47:26;;;;;;;19.75;17.75;;;18.60;99.90;;;;;;5072600;28;20047;-83
2023/06/22 00:49:51;;;;;;;20.77;18.77;;;18.50;99.90;;;;;;5072605;28;20409;-83
2023/06/22 00:52:26;;;;;;;22.00;19.75;;;18.60;99.90;;;;;;5055789;28;20494;-83
2023/06/22 00:54:52;;;;;;;20.92;18.92;;;18.60;99.90;;;;;;5072901;28;20115;-83
2023/06/22 00:57:18;;;;;;;18.40;16.55;;;18.60;99.90;;;;;;5055948;28;20040;-83
2023/06/22 00:59:51;;;;;;;13.38;12.07;;;18.50;99.90;;;;;;5055556;28;20040;-84
2023/06/22 01:02:17;;;;;;;16.15;14.45;;;18.50;99.90;;;;;;5072463;28;20043;-84
2023/06/22 01:04:43;;;;;;;16.35;14.85;;;18.40;99.90;;;;;;5072374;28;20036;-84
2023/06/22 01:07:41;;;;;;;20.63;18.73;;;18.40;99.90;;;;;;5072519;28;20037;-84
2023/06/22 01:10:28;;;;;;;20.95;19.02;;;18.40;99.90;;;;;;5072256;28;20379;-83
2023/06/22 01:13:06;;;;;;;23.63;21.42;;;18.30;99.90;;;;;;5055417;28;20040;-84
2023/06/22 01:15:39;;;;;;;21.73;19.80;;;18.30;99.90;;;;;;5055787;28;20070;-84
2023/06/22 01:18:06;;;;;;;21.30;19.20;;;18.20;99.90;;;;;;5072086;28;20500;-84
2023/06/22 01:20:35;;;;;;;21.42;19.42;;;18.20;99.90;;;;;;5071698;28;20040;-83
2023/06/22 01:23:16;;;;;;;22.95;20.85;;;18.20;99.90;;;;;;5071974;28;20409;-83
2023/06/22 01:25:53;;;;;;;22.58;20.48;;;18.10;99.90;;;;;;5071818;28;20047;-84
2023/06/22 01:28:42;;;;;;;20.00;18.20;;;18.10;99.90;;;;;;5071945;28;20044;-83
2023/06/22 01:31:10;;;;;;;18.02;16.33;;;18.10;99.90;;;;;;5071491;28;20040;-84
2023/06/22 01:33:40;;;;;;;15.68;14.18;;;18.10;99.90;;;;;;5054488;28;20040;-83
2023/06/22 01:36:07;;;;;;;10.75;8.30;;;18.10;99.90;;;;;;5071814;28;20029;-84
2023/06/22 01:38:33;;;;;;;11.60;10.40;;;17.90;99.90;;;;;;5071747;28;20644;-83
2023/06/22 01:41:00;;;;;;;11.98;10.40;;;17.90;99.90;;;;;;5071252;28;20516;-83
2023/06/22 01:43:27;;;;;;;11.65;10.38;;;17.80;99.90;;;;;;5071549;28;20076;-83
2023/06/22 01:45:54;;;;;;;16.60;14.95;;;17.80;99.90;;;;;;5071574;28;20063;-83
2023/06/22 01:48:22;;;;;;;23.13;21.02;;;17.70;99.90;;;;;;5071392;28;20559;-83
2023/06/22 01:50:48;;;;;;;20.10;18.10;;;17.70;99.90;;;;;;5071187;28;20506;-83
2023/06/22 01:53:13;;;;;;;24.85;22.52;;;17.70;99.90;;;;;;5054647;28;20039;-83
2023/06/22 01:55:39;;;;;;;26.05;23.65;;;17.70;99.90;;;;;;5071167;28;20079;-83
2023/06/22 01:58:05;;;;;;;28.08;25.48;;;17.80;99.90;;;;;;5071297;28;20044;-83
2023/06/22 02:00:38;;;;;;;30.70;27.70;;;17.80;99.90;;;;;;5071054;28;20090;-83
2023/06/22 02:03:15;;;;;;;26.58;23.88;;;17.80;99.90;;;;;;5071092;28;20041;-83
2023/06/22 02:05:49;;;;;;;28.35;25.60;;;17.70;99.90;;;;;;5071265;28;20044;-83
2023/06/22 02:08:26;;;;;;;32.63;29.52;;;17.70;99.90;;;;;;5071104;28;20238;-83
2023/06/22 02:10:54;;;;;;;29.80;26.95;;;17.70;99.90;;;;;;5071018;28;20063;-83
2023/06/22 02:13:20;;;;;;;32.40;29.30;;;17.70;99.90;;;;;;5070856;28;20036;-83
2023/06/22 02:15:47;;;;;;;32.55;29.55;;;17.60;99.90;;;;;;5071036;28;20041;-83
2023/06/22 02:18:13;;;;;;;36.65;33.20;;;17.60;99.90;;;;;;5054504;28;20040;-83
2023/06/22 02:20:40;;;;;;;37.67;34.25;;;17.60;99.90;;;;;;5070596;28;20166;-83
2023/06/22 02:23:07;;;;;;;30.48;27.58;;;17.60;99.90;;;;;;5071082;28;20048;-83
2023/06/22 02:25:33;;;;;;;26.40;24.00;;;17.70;99.90;;;;;;5071008;28;20041;-83
2023/06/22 02:27:58;;;;;;;26.92;20.67;;;17.60;99.90;;;;;;5071008;28;20401;-83
2023/06/22 02:30:24;;;;;;;31.17;28.20;;;17.60;99.90;;;;;;5070696;28;20486;-83
2023/06/22 02:32:58;;;;;;;33.83;30.73;;;17.60;99.90;;;;;;5054245;28;20401;-83
2023/06/22 02:35:31;;;;;;;32.67;29.50;;;17.60;99.90;;;;;;5070643;28;20037;-83
2023/06/22 02:38:00;;;;;;;21.58;17.25;;;17.60;99.90;;;;;;5071065;28;20478;-83
2023/06/22 02:40:27;;;;;;;25.60;23.20;;;17.60;99.90;;;;;;5070437;28;20044;-83
2023/06/22 02:42:52;;;;;;;19.48;17.58;;;17.50;99.90;;;;;;5070751;28;20058;-83
2023/06/22 02:45:18;;;;;;;15.10;13.60;;;17.50;99.90;;;;;;5053729;28;20482;-83
2023/06/22 02:47:44;;;;;;;18.35;16.45;;;17.50;99.90;;;;;;5053963;28;20041;-83
2023/06/22 02:50:10;;;;;;;19.02;17.17;;;17.50;99.90;;;;;;5053547;28;20063;-83
2023/06/22 02:52:36;;;;;;;19.52;17.80;;;17.40;99.90;;;;;;5070456;28;20123;-83
2023/06/22 02:55:02;;;;;;;22.27;20.20;;;17.40;99.90;;;;;;5070718;28;20041;-83
2023/06/22 02:57:27;;;;;;;18.77;16.98;;;17.40;99.90;;;;;;5070202;28;20044;-83
2023/06/22 02:59:53;;;;;;;22.58;20.45;;;17.40;99.90;;;;;;5070142;28;20040;-83
2023/06/22 03:02:21;;;;;;;23.27;21.15;;;17.30;99.90;;;;;;5070230;28;20037;-83
2023/06/22 03:04:49;;;;;;;17.52;13.93;;;17.30;99.90;;;;;;5070335;28;20446;-83
2023/06/22 03:07:17;;;;;;;18.58;16.77;;;17.20;99.90;;;;;;5070391;28;20048;-83
2023/06/22 03:09:43;;;;;;;19.70;17.80;;;17.20;99.90;;;;;;5069957;28;20033;-83
2023/06/22 03:12:08;;;;;;;22.92;20.63;;;17.20;99.90;;;;;;5053423;28;20502;-83
2023/06/22 03:14:34;;;;;;;27.30;24.73;;;17.20;99.90;;;;;;5070783;28;20044;-83
2023/06/22 03:17:02;;;;;;;27.45;24.88;;;17.20;99.90;;;;;;5070161;28;20131;-83
2023/06/22 03:19:31;;;;;;;26.38;22.20;;;17.20;99.90;;;;;;5053299;28;20041;-83
2023/06/22 03:21:57;;;;;;;26.85;22.77;;;17.10;99.90;;;;;;5070189;28;20040;-83
2023/06/22 03:24:22;;;;;;;31.27;28.27;;;17.10;99.90;;;;;;5070234;28;20045;-83
2023/06/22 03:26:48;;;;;;;32.90;29.90;;;17.10;99.90;;;;;;5070165;28;20055;-83
2023/06/22 03:29:14;;;;;;;29.95;27.15;;;17.20;99.90;;;;;;5070096;28;20043;-83
2023/06/22 03:31:39;;;;;;;38.45;35.05;;;17.20;99.90;;;;;;5069615;28;20442;-83
2023/06/22 03:34:05;;;;;;;40.28;36.60;;;17.20;99.90;;;;;;5070370;28;20033;-83
2023/06/22 03:36:31;;;;;;;44.60;40.50;;;17.20;99.90;;;;;;5053245;28;20032;-83
2023/06/22 03:38:57;;;;;;;32.45;27.80;;;17.20;99.90;;;;;;5070386;28;20043;-83
2023/06/22 03:41:22;;;;;;;39.25;35.65;;;17.20;99.90;;;;;;5052974;28;20485;-83
2023/06/22 03:43:48;;;;;;;21.67;19.58;;;17.20;99.90;;;;;;5069974;28;20036;-83
2023/06/22 03:46:13;;;;;;;20.92;19.02;;;17.20;99.90;;;;;;5069876;28;20044;-83
2023/06/22 03:48:39;;;;;;;22.88;20.73;;;17.20;99.90;;;;;;5069710;28;20144;-83
2023/06/22 03:51:04;;;;;;;23.95;21.60;;;17.10;99.90;;;;;;5052988;28;20134;-83
2023/06/22 03:53:30;;;;;;;17.88;14.45;;;17.10;99.90;;;;;;5070114;28;20044;-83
2023/06/22 03:55:56;;;;;;;20.02;18.10;;;17.00;99.90;;;;;;5069928;28;20037;-83
2023/06/22 03:58:21;;;;;;;20.52;18.63;;;17.00;99.90;;;;;;5072492;28;20036;-83
2023/06/22 04:00:52;;;;;;;25.23;22.83;;;17.00;99.90;;;;;;5073420;28;20045;-82
2023/06/22 04:03:18;;;;;;;21.42;19.48;;;17.00;99.90;;;;;;5073497;28;20048;-83
2023/06/22 04:05:44;;;;;;;25.02;22.65;;;17.00;99.90;;;;;;5073535;28;20040;-83
2023/06/22 04:08:10;;;;;;;24.23;21.92;;;17.00;99.90;;;;;;5056723;28;20040;-83
2023/06/22 04:10:36;;;;;;;29.52;26.85;;;16.90;99.90;;;;;;5056351;28;20040;-83
2023/06/22 04:13:02;;;;;;;31.90;29.00;;;17.00;99.90;;;;;;5073160;28;20044;-83
2023/06/22 04:15:27;;;;;;;28.88;26.27;;;16.90;99.90;;;;;;5073045;28;20064;-83
2023/06/22 04:17:54;;;;;;;24.67;22.38;;;16.90;99.90;;;;;;5073536;28;20040;-83
2023/06/22 04:20:20;;;;;;;23.00;20.85;;;16.90;99.90;;;;;;5073121;28;20074;-83
2023/06/22 04:22:45;;;;;;;23.75;21.45;;;16.90;99.90;;;;;;5073090;28;20044;-83
2023/06/22 04:25:11;;;;;;;26.55;24.05;;;16.90;99.90;;;;;;5073102;28;20436;-83
2023/06/22 04:27:39;;;;;;;25.90;23.60;;;16.90;99.90;;;;;;5072824;28;20070;-83
2023/06/22 04:30:07;;;;;;;22.55;20.45;;;16.80;99.90;;;;;;5072791;28;20036;-83
2023/06/22 04:32:34;;;;;;;17.85;16.23;;;16.80;99.90;;;;;;5073176;28;20040;-83
2023/06/22 04:35:04;;;;;;;13.48;11.15;;;16.80;99.90;;;;;;5072890;28;20068;-83
2023/06/22 04:37:30;;;;;;;16.08;14.57;;;16.60;99.90;;;;;;5072946;28;20032;-83
2023/06/22 04:39:55;;;;;;;20.70;18.70;;;16.60;99.90;;;;;;5072560;28;20119;-83
2023/06/22 04:42:21;;;;;;;14.65;11.90;;;16.60;99.90;;;;;;5055803;28;20043;-83
2023/06/22 04:44:46;;;;;;;21.80;19.77;;;16.60;99.90;;;;;;5072685;28;20041;-83
2023/06/22 04:47:12;;;;;;;22.40;20.40;;;16.60;99.90;;;;;;5072636;28;20028;-82
2023/06/22 04:49:40;;;;;;;18.55;16.25;;;16.60;99.90;;;;;;5072270;28;20410;-83
2023/06/22 04:52:07;;;;;;;22.42;20.33;;;16.60;99.90;;;;;;5072908;28;20070;-83
2023/06/22 04:54:34;;;;;;;23.35;21.17;;;16.60;99.90;;;;;;5072791;28;20032;-83
2023/06/22 04:57:09;;;;;;;20.70;18.60;;;16.70;99.90;;;;;;5072399;28;20049;-83
2023/06/22 04:59:36;;;;;;;20.33;18.35;;;16.70;99.90;;;;;;5072131;28;20036;-83
2023/06/22 05:02:02;;;;;;;23.20;20.98;;;16.70;99.90;;;;;;5072452;28;20044;-83
2023/06/22 05:04:32;;;;;;;22.58;20.45;;;16.80;99.90;;;;;;5072415;28;20048;-83
2023/06/22 05:07:00;;;;;;;27.83;25.23;;;16.80;99.90;;;;;;5072442;28;20471;-83
2023/06/22 05:09:26;;;;;;;42.20;38.30;;;16.90;99.90;;;;;;5072021;28;20045;-83
2023/06/22 05:11:51;;;;;;;59.75;54.17;;;17.00;99.90;;;;;;5072124;28;20033;-83
2023/06/22 05:14:17;;;;;;;53.67;48.78;;;17.20;99.90;;;;;;5071314;28;20028;-83
2023/06/22 05:16:44;;;;;;;58.38;52.97;;;17.20;99.90;;;;;;5052381;28;20040;-83
2023/06/22 05:19:10;;;;;;;52.80;47.95;;;17.40;99.90;;;;;;5052383;28;20041;-83
2023/06/22 05:21:35;;;;;;;56.88;51.72;;;17.50;99.90;;;;;;5051628;28;20498;-83
2023/06/22 05:24:02;;;;;;;57.38;52.08;;;17.60;99.90;;;;;;5072773;28;20409;-83
2023/06/22 05:26:29;;;;;;;58.25;52.83;;;17.70;99.90;;;;;;5072230;28;20406;-83
2023/06/22 05:28:55;;;;;;;50.80;37.35;;;17.80;99.90;;;;;;5071843;28;20475;-83
2023/06/22 05:31:21;;;;;;;52.40;47.63;;;17.80;99.90;;;;;;5071418;28;20074;-84
2023/06/22 05:33:49;;;;;;;53.28;48.45;;;17.90;99.90;;;;;;5055208;28;20111;-83
2023/06/22 05:36:15;;;;;;;53.72;48.80;;;18.10;99.90;;;;;;5071839;28;20051;-83
2023/06/22 05:38:41;;;;;;;55.00;49.97;;;18.10;99.90;;;;;;5071651;28;20040;-83
2023/06/22 05:41:07;;;;;;;51.03;46.40;;;18.20;99.90;;;;;;5071442;28;20044;-83
2023/06/22 05:43:33;;;;;;;52.28;47.47;;;18.30;99.90;;;;;;5071849;28;20141;-83
2023/06/22 05:46:00;;;;;;;53.17;48.22;;;18.40;99.90;;;;;;5055043;28;20517;-83
2023/06/22 05:48:26;;;;;;;49.92;45.47;;;18.50;99.90;;;;;;5071359;28;20048;-83
2023/06/22 05:50:52;;;;;;;52.75;48.05;;;18.50;99.90;;;;;;5071128;28;20119;-83
2023/06/22 05:53:17;;;;;;;50.15;45.65;;;18.60;99.90;;;;;;5054731;28;20036;-83
2023/06/22 05:55:43;;;;;;;50.15;45.72;;;18.60;99.90;;;;;;5071328;28;20043;-83
2023/06/22 05:58:09;;;;;;;49.33;44.72;;;18.70;99.90;;;;;;5054750;28;20044;-83
2023/06/22 06:00:35;;;;;;;49.58;45.05;;;18.80;99.90;;;;;;5054412;28;20041;-83
2023/06/22 06:03:03;;;;;;;49.00;44.63;;;18.80;99.90;;;;;;5071497;28;20044;-83
2023/06/22 06:05:33;;;;;;;49.13;44.53;;;18.90;99.90;;;;;;5071207;28;20123;-84
2023/06/22 06:08:00;;;;;;;47.25;43.05;;;19.00;99.90;;;;;;5054652;28;20036;-83
2023/06/22 06:10:25;;;;;;;46.33;42.22;;;19.00;99.90;;;;;;5070926;28;20040;-84
2023/06/22 06:12:51;;;;;;;45.83;41.70;;;19.10;99.90;;;;;;5071029;28;20046;-84
2023/06/22 06:15:17;;;;;;;44.97;40.88;;;19.20;99.90;;;;;;5071170;28;20036;-84
2023/06/22 06:17:51;;;;;;;42.42;38.58;;;19.30;99.90;;;;;;5071196;28;20028;-83
2023/06/22 06:20:20;;;;;;;41.42;37.80;;;19.30;99.90;;;;;;5053568;28;20076;-83
2023/06/22 06:22:47;;;;;;;40.35;36.70;;;19.40;99.90;;;;;;5071065;28;20044;-84
2023/06/22 06:25:15;;;;;;;38.10;34.70;;;19.50;99.90;;;;;;5070992;28;20044;-84
2023/06/22 06:27:49;;;;;;;39.13;35.53;;;19.60;99.90;;;;;;5070757;28;20098;-84
2023/06/22 06:30:16;;;;;;;36.60;33.13;;;19.70;99.90;;;;;;5070553;28;20041;-84
2023/06/22 06:32:42;;;;;;;37.00;33.60;;;19.80;99.90;;;;;;5053951;28;20044;-84
2023/06/22 06:35:09;;;;;;;36.03;32.72;;;19.90;99.90;;;;;;5054047;28;20069;-84
2023/06/22 06:37:40;;;;;;;36.95;33.53;;;19.90;99.90;;;;;;5054141;28;20039;-84
2023/06/22 06:40:15;;;;;;;35.42;32.28;;;20.10;99.90;;;;;;5070359;28;20036;-84
2023/06/22 06:42:44;;;;;;;30.63;27.75;;;20.10;99.90;;;;;;5070598;28;20497;-84
2023/06/22 06:45:24;;;;;;;27.58;25.08;;;20.20;99.90;;;;;;5053901;28;20082;-84
2023/06/22 06:47:51;;;;;;;30.90;27.90;;;20.30;99.90;;;;;;5053765;28;20482;-85
2023/06/22 06:50:17;;;;;;;30.40;27.50;;;20.30;99.90;;;;;;5070314;28;20044;-84
2023/06/22 06:52:43;;;;;;;29.85;26.98;;;20.40;99.90;;;;;;5070125;28;20032;-83
2023/06/22 06:55:12;;;;;;;29.20;26.52;;;20.40;99.90;;;;;;5051486;28;20473;-84
2023/06/22 06:57:38;;;;;;;30.63;27.80;;;20.50;99.90;;;;;;5053449;28;20052;-84
2023/06/22 07:00:11;;;;;;;31.83;28.90;;;20.60;99.90;;;;;;5070449;28;20399;-84
2023/06/22 07:02:39;;;;;;;29.75;27.05;;;20.70;99.90;;;;;;5070667;28;20036;-84
2023/06/22 07:05:05;;;;;;;32.80;29.80;;;20.70;99.90;;;;;;5053671;28;20036;-84
2023/06/22 07:07:32;;;;;;;29.58;26.75;;;20.70;99.90;;;;;;5070310;28;20040;-84
2023/06/22 07:09:57;;;;;;;28.65;26.05;;;20.80;99.90;;;;;;5070122;28;20437;-84
2023/06/22 07:12:23;;;;;;;30.02;27.23;;;20.90;99.90;;;;;;5070203;28;20032;-83
2023/06/22 07:14:50;;;;;;;27.67;25.08;;;21.00;99.90;;;;;;5070636;28;20044;-84
2023/06/22 07:17:15;;;;;;;26.52;23.90;;;21.10;99.90;;;;;;5070348;28;20494;-84
2023/06/22 07:19:42;;;;;;;28.63;25.75;;;21.10;99.90;;;;;;5053515;28;20047;-84
2023/06/22 07:22:07;;;;;;;25.95;23.48;;;21.10;99.90;;;;;;5070268;28;20041;-84
2023/06/22 07:24:33;;;;;;;26.02;23.63;;;21.20;99.90;;;;;;5070438;28;20043;-84
2023/06/22 07:26:59;;;;;;;23.15;20.95;;;21.30;99.90;;;;;;5070354;28;20521;-84
2023/06/22 07:29:26;;;;;;;22.95;20.35;;;21.40;99.90;;;;;;5070169;28;20032;-84
2023/06/22 07:31:52;;;;;;;22.15;19.95;;;21.40;99.90;;;;;;5070129;28;20040;-84
2023/06/22 07:34:18;;;;;;;20.75;18.63;;;21.50;99.90;;;;;;5057555;28;20033;-84
2023/06/22 07:36:44;;;;;;;20.30;18.17;;;21.60;99.90;;;;;;5057683;28;20125;-84
2023/06/22 07:39:10;;;;;;;20.50;18.50;;;21.60;99.90;;;;;;5074115;28;20036;-84
2023/06/22 07:41:36;;;;;;;20.27;18.02;;;21.70;99.90;;;;;;5073785;28;20131;-84
2023/06/22 07:44:03;;;;;;;18.27;16.23;;;21.80;99.90;;;;;;5074016;28;20079;-84
2023/06/22 07:46:30;;;;;;;16.65;14.93;;;21.80;99.90;;;;;;5074031;28;20700;-84
2023/06/22 07:48:56;;;;;;;16.17;14.48;;;21.90;99.90;;;;;;5073830;28;20041;-84
2023/06/22 07:51:22;;;;;;;15.32;13.70;;;21.90;99.90;;;;;;5073785;28;20047;-84
2023/06/22 07:53:47;;;;;;;14.32;12.70;;;22.00;99.90;;;;;;5057081;28;20033;-84
2023/06/22 07:56:13;;;;;;;14.43;12.93;;;22.10;99.90;;;;;;5074838;28;20048;-84
2023/06/22 07:58:39;;;;;;;14.60;12.00;;;22.10;99.90;;;;;;5073744;28;20681;-84
2023/06/22 08:01:05;;;;;;;15.68;12.57;;;22.20;99.90;;;;;;5073368;28;20075;-84
2023/06/22 08:03:31;;;;;;;13.77;12.20;;;22.30;99.90;;;;;;5073683;28;20048;-84
2023/06/22 08:05:57;;;;;;;16.35;13.20;;;22.40;99.90;;;;;;5056924;28;20517;-84
2023/06/22 08:08:23;;;;;;;16.13;13.85;;;22.40;99.90;;;;;;5056920;28;20036;-84
2023/06/22 08:10:49;;;;;;;15.02;13.23;;;22.50;99.90;;;;;;5074336;28;20482;-84
2023/06/22 08:13:15;;;;;;;16.13;14.20;;;22.60;99.90;;;;;;5056903;28;20043;-84
2023/06/22 08:15:40;;;;;;;15.63;14.00;;;22.70;99.90;;;;;;5073340;28;20505;-84
2023/06/22 08:18:06;;;;;;;15.40;13.68;;;22.70;99.90;;;;;;5073292;28;20549;-83
2023/06/22 08:20:32;;;;;;;16.35;13.38;;;22.80;99.90;;;;;;5074124;28;20036;-84
2023/06/22 08:23:00;;;;;;;14.77;12.00;;;22.90;99.90;;;;;;5073211;28;20041;-84
2023/06/22 08:25:26;;;;;;;15.35;11.68;;;22.90;99.90;;;;;;5055897;28;20033;-84
2023/06/22 08:27:51;;;;;;;14.35;11.85;;;22.90;99.90;;;;;;5072987;28;20043;-84
2023/06/22 08:30:18;;;;;;;14.65;12.13;;;23.00;99.90;;;;;;5055778;28;20428;-84
2023/06/22 08:32:44;;;;;;;14.23;12.68;;;23.10;99.90;;;;;;5072503;28;20044;-84
2023/06/22 08:35:10;;;;;;;15.48;13.50;;;23.10;99.90;;;;;;5053791;28;20040;-84
2023/06/22 08:37:36;;;;;;;16.05;12.93;;;23.20;99.90;;;;;;5072785;28;20123;-84
2023/06/22 08:40:05;;;;;;;15.13;11.85;;;23.20;99.90;;;;;;5072403;28;20071;-84
2023/06/22 08:42:31;;;;;;;14.65;12.32;;;23.30;99.90;;;;;;5053399;28;20529;-84
2023/06/22 08:44:56;;;;;;;14.13;12.10;;;23.40;99.90;;;;;;5072204;28;20043;-84
2023/06/22 08:47:22;;;;;;;14.57;11.80;;;23.40;99.90;;;;;;5072578;28;20033;-84
2023/06/22 08:49:48;;;;;;;14.00;10.45;;;23.50;99.90;;;;;;5052623;28;20129;-84
2023/06/22 08:52:14;;;;;;;13.45;10.23;;;23.50;99.90;;;;;;5072113;28;20054;-84
2023/06/22 08:54:40;;;;;;;14.43;10.20;;;23.60;99.90;;;;;;5072065;28;20036;-84
2023/06/22 08:57:06;;;;;;;13.15;10.80;;;23.70;99.90;;;;;;5072092;28;20031;-84
2023/06/22 08:59:31;;;;;;;11.82;10.43;;;23.80;99.90;;;;;;5071362;28;20478;-84
2023/06/22 09:01:57;;;;;;;12.90;10.20;;;23.80;99.90;;;;;;5071259;28;20040;-84
2023/06/22 09:04:23;;;;;;;14.18;10.30;;;23.90;99.90;;;;;;5071733;28;20048;-84
2023/06/22 09:06:49;;;;;;;13.32;10.35;;;24.00;99.90;;;;;;5071933;28;20517;-84
2023/06/22 09:09:16;;;;;;;12.65;10.10;;;24.00;99.90;;;;;;5071233;28;20091;-84
2023/06/22 09:11:42;;;;;;;12.35;9.95;;;24.10;99.90;;;;;;5069247;28;20108;-84
2023/06/22 09:14:14;;;;;;;14.23;10.05;;;24.20;99.90;;;;;;5054662;28;20127;-84
2023/06/22 09:16:39;;;;;;;13.85;9.57;;;24.20;99.90;;;;;;5071388;28;20039;-84
2023/06/22 09:19:06;;;;;;;11.75;9.15;;;24.30;99.90;;;;;;5054571;28;20036;-84
2023/06/22 09:21:35;;;;;;;13.95;9.75;;;24.40;99.90;;;;;;5054631;28;20033;-84
2023/06/22 09:24:04;;;;;;;11.80;10.07;;;24.50;99.90;;;;;;5070666;28;20055;-84
2023/06/22 09:26:30;;;;;;;13.25;10.95;;;24.50;99.90;;;;;;5051157;28;20495;-84
2023/06/22 09:28:55;;;;;;;10.93;9.55;;;24.60;99.90;;;;;;5051462;28;20127;-84
2023/06/22 09:31:49;;;;;;;13.00;10.63;;;24.70;99.90;;;;;;5065036;28;20246;-84
2023/06/22 09:34:20;;;;;;;14.25;10.85;;;24.80;99.90;;;;;;5056158;28;20063;-86
2023/06/22 09:36:47;;;;;;;14.23;10.32;;;24.80;99.30;;;;;;5071932;28;20044;-86
2023/06/22 09:39:13;;;;;;;12.77;9.95;;;24.90;98.30;;;;;;5054671;28;20052;-86
2023/06/22 09:41:38;;;;;;;15.20;10.63;;;25.00;97.70;;;;;;5071301;28;20036;-86
2023/06/22 09:44:04;;;;;;;13.27;10.52;;;25.00;97.70;;;;;;5071359;28;20543;-86
2023/06/22 09:46:30;;;;;;;14.02;10.27;;;25.10;96.60;;;;;;5070593;28;20040;-86
2023/06/22 09:48:55;;;;;;;12.70;9.38;;;25.10;96.50;;;;;;5071020;28;20444;-85
2023/06/22 09:51:23;;;;;;;15.00;9.02;;;25.10;97.00;;;;;;5070892;28;20086;-84
2023/06/22 09:53:52;;;;;;;12.93;9.70;;;25.20;97.00;;;;;;5071504;28;20106;-84
2023/06/22 09:56:17;;;;;;;11.57;9.57;;;25.30;97.20;;;;;;5053907;28;20036;-84
2023/06/22 09:58:44;;;;;;;14.13;9.98;;;25.40;96.60;;;;;;5072661;28;20052;-84
2023/06/22 10:01:10;;;;;;;11.90;9.45;;;25.40;95.50;;;;;;5054233;28;20044;-84
2023/06/22 10:03:36;;;;;;;12.00;8.80;;;25.50;95.10;;;;;;5054711;28;20062;-84
2023/06/22 10:06:02;;;;;;;11.40;8.73;;;25.50;94.50;;;;;;5054811;28;20406;-84
2023/06/22 10:08:28;;;;;;;11.18;8.40;;;25.60;93.90;;;;;;5054543;28;20509;-84
2023/06/22 10:10:53;;;;;;;13.05;9.60;;;25.70;93.40;;;;;;5071223;28;20485;-84
2023/06/22 10:13:19;;;;;;;11.75;8.32;;;25.70;92.50;;;;;;5070933;28;20550;-84
2023/06/22 10:15:51;;;;;;;11.52;8.35;;;25.80;92.20;;;;;;5070736;28;20036;-84
2023/06/22 10:18:17;;;;;;;11.73;8.40;;;25.80;92.10;;;;;;5054351;28;20170;-84
2023/06/22 10:20:42;;;;;;;11.75;7.47;;;25.90;91.70;;;;;;5070387;28;20047;-85
2023/06/22 10:23:08;;;;;;;11.70;8.63;;;25.90;91.50;;;;;;5071122;28;20036;-84
2023/06/22 10:25:34;;;;;;;12.27;8.30;;;26.00;91.10;;;;;;5070826;28;20387;-84
2023/06/22 10:27:59;;;;;;;11.60;8.45;;;26.10;90.50;;;;;;5070428;28;20128;-84
2023/06/22 10:30:25;;;;;;;11.60;7.65;;;26.20;90.60;;;;;;5053175;28;20079;-85
2023/06/22 10:32:51;;;;;;;11.57;7.72;;;26.20;90.40;;;;;;5071646;28;20086;-84
2023/06/22 10:35:16;;;;;;;13.85;8.02;;;26.30;90.00;;;;;;5070275;28;20040;-84
2023/06/22 10:37:46;;;;;;;14.77;7.95;;;26.30;88.70;;;;;;5071707;28;20401;-84
2023/06/22 10:40:14;;;;;;;13.93;8.63;;;26.40;87.90;;;;;;5053239;28;20409;-84
2023/06/22 10:42:40;;;;;;;15.48;7.57;;;26.50;87.10;;;;;;5070075;28;20036;-85
2023/06/22 10:45:06;;;;;;;11.02;7.10;;;26.60;88.00;;;;;;5070151;28;20094;-84
2023/06/22 10:47:32;;;;;;;13.07;6.90;;;26.70;86.70;;;;;;5070272;28;20111;-85
2023/06/22 10:49:57;;;;;;;9.43;5.85;;;26.90;86.40;;;;;;5070055;28;20124;-84
2023/06/22 10:52:23;;;;;;;9.57;6.63;;;27.00;85.50;;;;;;5053273;28;20037;-85
2023/06/22 10:54:49;;;;;;;10.52;6.15;;;27.10;83.90;;;;;;5071506;28;20461;-85
2023/06/22 10:57:14;;;;;;;8.85;5.10;;;27.10;82.00;;;;;;5070031;28;20063;-85
2023/06/22 10:59:40;;;;;;;10.90;6.47;;;27.10;82.00;;;;;;5069638;28;20054;-85
2023/06/22 11:02:05;;;;;;;9.35;6.60;;;27.20;82.70;;;;;;5069770;28;20037;-85
2023/06/22 11:04:31;;;;;;;8.73;5.20;;;27.20;82.60;;;;;;5069531;28;20060;-85
2023/06/22 11:06:57;;;;;;;9.95;6.30;;;27.30;83.40;;;;;;5052756;28;20032;-85
2023/06/22 11:09:22;;;;;;;11.02;6.57;;;27.50;83.40;;;;;;5070616;28;20125;-85
2023/06/22 11:11:50;;;;;;;11.27;6.32;;;27.60;81.10;;;;;;5069909;28;20502;-85
2023/06/22 11:14:16;;;;;;;10.77;6.75;;;27.60;79.20;;;;;;5069335;28;20388;-85
2023/06/22 11:16:42;;;;;;;10.30;6.10;;;27.50;78.10;;;;;;5069735;28;20048;-85
2023/06/22 11:19:08;;;;;;;10.73;6.10;;;27.50;78.70;;;;;;5068187;28;20040;-85
2023/06/22 11:21:33;;;;;;;9.15;5.53;;;27.50;78.90;;;;;;5070424;28;20044;-85
2023/06/22 11:23:59;;;;;;;10.07;5.40;;;27.50;77.80;;;;;;5069587;28;20032;-85
2023/06/22 11:26:28;;;;;;;11.13;5.47;;;27.40;75.60;;;;;;5069065;28;20413;-85
2023/06/22 11:28:54;;;;;;;9.93;6.00;;;27.40;76.20;;;;;;5052557;28;20032;-85
2023/06/22 11:31:19;;;;;;;8.98;5.60;;;27.40;76.50;;;;;;5070389;28;20151;-85
2023/06/22 11:33:48;;;;;;;10.57;5.90;;;27.30;76.40;;;;;;5068772;28;20086;-85
2023/06/22 11:36:14;;;;;;;8.50;5.45;;;27.30;78.20;;;;;;5049924;28;20033;-85
2023/06/22 11:38:40;;;;;;;9.60;6.00;;;27.30;77.90;;;;;;5069586;28;20109;-85
2023/06/22 11:41:06;;;;;;;10.38;5.97;;;27.30;77.50;;;;;;5070519;28;20075;-85
2023/06/22 11:43:32;;;;;;;9.13;5.60;;;27.30;77.20;;;;;;5069898;28;20127;-85
2023/06/22 11:45:57;;;;;;;9.25;5.05;;;27.30;77.20;;;;;;5069897;28;20083;-85
2023/06/22 11:48:26;;;;;;;8.65;5.07;;;27.30;76.90;;;;;;5052784;28;20486;-85
2023/06/22 11:50:55;;;;;;;10.02;5.10;;;27.30;77.60;;;;;;5069252;28;20043;-85
2023/06/22 11:53:22;;;;;;;8.88;5.00;;;27.40;78.40;;;;;;5052070;28;20120;-85
2023/06/22 11:55:48;;;;;;;9.55;5.30;;;27.40;77.10;;;;;;5069312;28;20120;-85
2023/06/22 11:58:14;;;;;;;9.32;5.88;;;27.40;76.70;;;;;;5069549;28;20048;-85
2023/06/22 12:00:40;;;;;;;9.90;5.90;;;27.30;75.90;;;;;;5069213;28;20036;-85
2023/06/22 12:03:05;;;;;;;10.35;6.97;;;27.30;75.80;;;;;;5052580;28;20425;-85
2023/06/22 12:05:31;;;;;;;8.80;5.43;;;27.30;76.10;;;;;;5069436;28;20456;-85
2023/06/22 12:07:57;;;;;;;8.57;4.80;;;27.40;76.50;;;;;;5069350;28;20048;-85
2023/06/22 12:10:24;;;;;;;9.13;5.57;;;27.40;76.50;;;;;;5052317;28;20040;-85
2023/06/22 12:12:50;;;;;;;9.48;5.75;;;27.40;75.50;;;;;;5067852;28;20071;-85
2023/06/22 12:15:16;;;;;;;9.80;5.40;;;27.40;75.70;;;;;;5069046;28;20036;-85
2023/06/22 12:17:41;;;;;;;9.30;5.40;;;27.40;75.70;;;;;;5068801;28;20045;-85
2023/06/22 12:20:07;;;;;;;9.00;5.38;;;27.40;76.50;;;;;;5072431;28;20052;-85
2023/06/22 12:22:33;;;;;;;9.73;5.30;;;27.50;76.90;;;;;;5073049;28;20398;-85
2023/06/22 12:24:59;;;;;;;8.10;4.80;;;27.50;76.30;;;;;;5072622;28;20486;-85
2023/06/22 12:27:25;;;;;;;8.70;5.05;;;27.50;76.00;;;;;;5073069;28;20041;-85
2023/06/22 12:29:51;;;;;;;11.48;5.22;;;27.50;74.80;;;;;;5072549;28;20169;-85